createdAt,value
2023-01-22T00:01:17.531Z,1.56
2023-01-22T00:03:49.578Z,1.55
2023-01-22T00:06:20.437Z,1.53
2023-01-22T00:08:50.832Z,1.50
2023-01-22T00:11:22.362Z,1.51
2023-01-22T00:13:55.082Z,1.50
2023-01-22T00:16:25.466Z,1.52
2023-01-22T00:18:55.350Z,1.51
2023-01-22T00:21:27.716Z,1.51
2023-01-22T00:23:57.804Z,1.53
2023-01-22T00:26:28.627Z,1.55
2023-01-22T00:29:01.149Z,1.57
2023-01-22T00:31:31.485Z,1.58
2023-01-22T00:34:01.617Z,1.59
2023-01-22T00:36:32.026Z,1.61
2023-01-22T00:39:02.038Z,1.61
2023-01-22T00:41:33.148Z,1.60
2023-01-22T00:44:06.106Z,1.59
2023-01-22T00:46:36.497Z,1.56
2023-01-22T00:49:06.506Z,1.55
2023-01-22T00:51:39.427Z,1.57
2023-01-22T00:54:09.723Z,1.57
2023-01-22T00:56:40.185Z,1.58
2023-01-22T00:59:13.705Z,1.55
2023-01-22T01:01:44.652Z,1.52
2023-01-22T01:04:16.069Z,1.56
2023-01-22T01:06:46.413Z,1.56
2023-01-22T01:09:17.369Z,1.57
2023-01-22T01:11:47.626Z,1.54
2023-01-22T01:14:22.609Z,1.56
2023-01-22T01:16:53.644Z,1.62
2023-01-22T01:19:23.974Z,1.65
2023-01-22T01:21:55.476Z,1.67
2023-01-22T01:24:25.492Z,1.70
2023-01-22T01:26:56.637Z,1.69
2023-01-22T01:29:29.207Z,1.67
2023-01-22T01:31:59.569Z,1.64
2023-01-22T01:34:29.572Z,1.56
2023-01-22T01:36:59.902Z,1.56
2023-01-22T01:39:29.868Z,1.54
2023-01-22T01:42:00.303Z,1.52
2023-01-22T01:44:35.119Z,1.48
2023-01-22T01:47:08.683Z,1.53
2023-01-22T01:49:46.594Z,1.57
2023-01-22T01:52:19.182Z,1.56
2023-01-22T01:54:53.357Z,1.55
2023-01-22T01:57:28.916Z,1.57
2023-01-22T02:00:05.202Z,1.53
2023-01-22T02:02:35.764Z,1.54
2023-01-22T02:05:06.768Z,1.52
2023-01-22T02:07:37.369Z,1.48
2023-01-22T02:10:08.845Z,1.49
2023-01-22T02:12:39.843Z,1.51
2023-01-22T02:15:13.616Z,1.56
2023-01-22T02:17:44.532Z,1.53
2023-01-22T02:20:16.455Z,1.50
2023-01-22T02:22:49.884Z,1.44
2023-01-22T02:25:20.471Z,1.49
2023-01-22T02:27:51.220Z,1.50
2023-01-22T02:30:21.884Z,1.48
2023-01-22T02:32:52.167Z,1.51
2023-01-22T02:35:22.158Z,1.49
2023-01-22T02:37:55.056Z,1.44
2023-01-22T02:40:25.140Z,1.44
2023-01-22T02:42:55.455Z,1.47
2023-01-22T02:45:25.920Z,1.40
2023-01-22T02:47:56.186Z,1.42
2023-01-22T02:50:26.141Z,1.41
2023-01-22T02:52:59.005Z,1.39
2023-01-22T02:55:28.961Z,1.44
2023-01-22T02:57:59.244Z,1.49
2023-01-22T03:00:29.149Z,1.55
2023-01-22T03:02:59.574Z,1.51
2023-01-22T03:05:31.108Z,1.52
2023-01-22T03:08:03.951Z,1.54
2023-01-22T03:10:33.976Z,1.58
2023-01-22T03:13:16.671Z,1.55
2023-01-22T03:15:59.061Z,1.58
2023-01-22T03:18:41.803Z,1.52
2023-01-22T03:21:18.779Z,1.51
2023-01-22T03:23:54.405Z,1.54
2023-01-22T03:26:28.900Z,1.54
2023-01-22T03:28:59.444Z,1.57
2023-01-22T03:31:29.752Z,1.54
2023-01-22T03:34:00.430Z,1.56
2023-01-22T03:36:30.792Z,1.60
2023-01-22T03:39:03.972Z,1.62
2023-01-22T03:41:34.258Z,1.58
2023-01-22T03:44:04.925Z,1.60
2023-01-22T03:46:35.623Z,1.56
2023-01-22T03:49:06.395Z,1.50
2023-01-22T03:51:37.005Z,1.48
2023-01-22T03:54:10.270Z,1.53
2023-01-22T03:56:41.837Z,1.56
2023-01-22T03:59:13.447Z,1.55
2023-01-22T04:01:43.664Z,1.54
2023-01-22T04:04:14.238Z,1.52
2023-01-22T04:06:44.464Z,1.39
2023-01-22T04:09:18.438Z,1.41
2023-01-22T04:11:48.672Z,1.45
2023-01-22T04:14:19.486Z,1.49
2023-01-22T04:16:50.536Z,1.52
2023-01-22T04:19:21.224Z,1.50
2023-01-22T04:21:51.468Z,1.50
2023-01-22T04:24:24.599Z,1.53
2023-01-22T04:26:55.391Z,1.51
2023-01-22T04:29:28.634Z,1.52
2023-01-22T04:31:58.989Z,1.52
2023-01-22T04:34:29.538Z,1.55
2023-01-22T04:36:59.716Z,1.55
2023-01-22T04:39:33.445Z,1.60
2023-01-22T04:42:03.701Z,1.57
2023-01-22T04:44:34.224Z,1.57
2023-01-22T04:47:04.405Z,1.56
2023-01-22T04:49:37.719Z,1.52
2023-01-22T04:52:24.250Z,1.54
2023-01-22T04:54:58.343Z,1.54
2023-01-22T04:57:28.231Z,1.55
2023-01-22T04:59:58.527Z,1.52
2023-01-22T05:02:28.522Z,1.55
2023-01-22T05:04:58.848Z,1.54
2023-01-22T05:07:28.708Z,1.53
2023-01-22T05:10:01.604Z,1.48
2023-01-22T05:12:31.549Z,1.49
2023-01-22T05:15:02.913Z,1.49
2023-01-22T05:17:34.018Z,1.47
2023-01-22T05:20:04.414Z,1.43
2023-01-22T05:22:34.382Z,1.39
2023-01-22T05:25:08.343Z,1.38
2023-01-22T05:27:38.229Z,1.37
2023-01-22T05:30:10.303Z,1.39
2023-01-22T05:32:40.247Z,1.41
2023-01-22T05:35:11.077Z,1.42
2023-01-22T05:37:40.994Z,1.36
2023-01-22T05:40:15.688Z,1.40
2023-01-22T05:42:45.885Z,1.45
2023-01-22T05:45:16.288Z,1.49
2023-01-22T05:47:46.272Z,1.50
2023-01-22T05:50:16.992Z,1.50
2023-01-22T05:52:47.148Z,1.50
2023-01-22T05:55:20.057Z,1.49
2023-01-22T05:57:50.311Z,1.48
2023-01-22T06:00:21.350Z,1.47
2023-01-22T06:02:51.318Z,1.45
2023-01-22T06:05:21.622Z,1.43
2023-01-22T06:07:51.941Z,1.46
2023-01-22T06:10:24.777Z,1.41
2023-01-22T06:12:54.659Z,1.41
2023-01-22T06:15:24.912Z,1.41
2023-01-22T06:17:54.848Z,1.33
2023-01-22T06:20:25.129Z,1.31
2023-01-22T06:22:55.159Z,1.29
2023-01-22T06:25:28.039Z,1.34
2023-01-22T06:27:57.924Z,1.28
2023-01-22T06:30:28.187Z,1.22
2023-01-22T06:32:58.182Z,1.22
2023-01-22T06:35:28.556Z,1.23
2023-01-22T06:37:58.413Z,1.31
2023-01-22T06:40:31.472Z,1.37
2023-01-22T06:43:04.732Z,1.32
2023-01-22T06:45:35.389Z,1.32
2023-01-22T06:48:05.567Z,1.35
2023-01-22T06:50:36.120Z,1.37
2023-01-22T06:53:06.932Z,1.41
2023-01-22T06:55:40.272Z,1.43
2023-01-22T06:58:10.511Z,1.38
2023-01-22T07:00:41.155Z,1.32
2023-01-22T07:03:11.784Z,1.29
2023-01-22T07:05:42.422Z,1.31
2023-01-22T07:08:17.236Z,1.34
2023-01-22T07:10:50.322Z,1.36
2023-01-22T07:13:20.637Z,1.39
2023-01-22T07:15:51.343Z,1.38
2023-01-22T07:18:23.998Z,1.41
2023-01-22T07:20:54.708Z,1.38
2023-01-22T07:23:25.276Z,1.39
2023-01-22T07:25:58.521Z,1.38
2023-01-22T07:28:28.934Z,1.40
2023-01-22T07:30:59.845Z,1.43
2023-01-22T07:33:30.122Z,1.42
2023-01-22T07:36:01.057Z,1.38
2023-01-22T07:38:31.564Z,1.40
2023-01-22T07:41:24.860Z,1.43
2023-01-22T07:43:57.627Z,1.44
2023-01-22T07:46:28.375Z,1.45
2023-01-22T07:48:58.599Z,1.44
2023-01-22T07:51:29.172Z,1.48
2023-01-22T07:53:59.530Z,1.51
2023-01-22T07:56:32.716Z,1.51
2023-01-22T07:59:03.716Z,1.53
2023-01-22T08:01:34.289Z,1.55
2023-01-22T08:04:04.520Z,1.55
2023-01-22T08:06:35.180Z,1.52
2023-01-22T08:09:05.433Z,1.50
2023-01-22T08:11:38.580Z,1.56
2023-01-22T08:14:08.831Z,1.58
2023-01-22T08:16:39.357Z,1.50
2023-01-22T08:19:09.555Z,1.53
2023-01-22T08:21:40.165Z,1.54
2023-01-22T08:24:12.599Z,1.51
2023-01-22T08:26:45.889Z,1.51
2023-01-22T08:29:16.313Z,1.52
2023-01-22T08:31:47.091Z,1.62
2023-01-22T08:34:17.393Z,1.62
2023-01-22T08:36:48.082Z,1.53
2023-01-22T08:39:18.308Z,1.52
2023-01-22T08:41:52.255Z,1.55
2023-01-22T08:44:22.464Z,1.56
2023-01-22T08:46:53.379Z,1.54
2023-01-22T08:49:30.570Z,1.47
2023-01-22T08:52:01.428Z,1.46
2023-01-22T08:54:31.533Z,1.50
2023-01-22T08:57:04.381Z,1.50
2023-01-22T08:59:34.402Z,1.48
2023-01-22T09:02:05.322Z,1.49
2023-01-22T09:04:35.581Z,1.53
2023-01-22T09:07:06.060Z,1.51
2023-01-22T09:09:36.370Z,1.53
2023-01-22T09:12:09.669Z,1.56
2023-01-22T09:14:42.916Z,1.57
2023-01-22T09:17:13.258Z,1.58
2023-01-22T09:19:43.237Z,1.55
2023-01-22T09:22:13.698Z,1.54
2023-01-22T09:24:44.087Z,1.53
2023-01-22T09:27:16.972Z,1.55
2023-01-22T09:29:47.085Z,1.55
2023-01-22T09:32:17.731Z,1.55
2023-01-22T09:34:47.677Z,1.52
2023-01-22T09:37:17.929Z,1.51
2023-01-22T09:39:50.190Z,1.51
2023-01-22T09:42:26.536Z,1.55
2023-01-22T09:45:00.480Z,1.59
2023-01-22T09:47:39.394Z,1.66
2023-01-22T09:50:20.867Z,1.59
2023-01-22T09:52:54.356Z,1.58
2023-01-22T09:55:26.548Z,1.55
2023-01-22T09:58:05.708Z,1.58
2023-01-22T10:00:44.235Z,1.61
2023-01-22T10:03:22.778Z,1.59
2023-01-22T10:05:56.890Z,1.64
2023-01-22T10:08:31.565Z,1.65
2023-01-22T10:11:03.756Z,1.64
2023-01-22T10:13:39.099Z,1.59
2023-01-22T10:16:10.151Z,1.62
2023-01-22T10:18:48.169Z,1.61
2023-01-22T10:21:22.740Z,1.63
2023-01-22T10:23:56.149Z,1.63
2023-01-22T10:26:35.544Z,1.65
2023-01-22T10:29:12.995Z,1.66
2023-01-22T10:31:49.515Z,1.70
2023-01-22T10:34:27.414Z,1.72
2023-01-22T10:36:58.034Z,1.78
2023-01-22T10:39:28.383Z,1.79
2023-01-22T10:42:04.285Z,1.81
2023-01-22T10:44:37.267Z,1.79
2023-01-22T10:47:18.479Z,1.81
2023-01-22T10:49:49.649Z,1.88
2023-01-22T10:52:25.648Z,1.93
2023-01-22T10:54:59.345Z,1.97
2023-01-22T10:57:33.607Z,2.03
2023-01-22T11:00:23.691Z,2.05
2023-01-22T11:02:54.073Z,2.06
2023-01-22T11:05:27.084Z,2.09
2023-01-22T11:08:01.346Z,2.10
2023-01-22T11:10:42.321Z,2.08
2023-01-22T11:13:18.971Z,2.09
2023-01-22T11:15:58.389Z,2.09
2023-01-22T11:18:34.545Z,2.09
2023-01-22T11:21:15.258Z,2.03
2023-01-22T11:23:54.974Z,2.07
2023-01-22T11:26:37.701Z,2.09
2023-01-22T11:29:21.023Z,2.07
2023-01-22T11:32:10.401Z,2.07
2023-01-22T11:34:59.736Z,2.06
2023-01-22T11:37:48.528Z,2.06
2023-01-22T11:40:27.423Z,2.06
2023-01-22T11:43:29.905Z,2.04
2023-01-22T11:46:28.654Z,2.05
2023-01-22T11:49:14.512Z,2.09
2023-01-22T11:51:56.289Z,2.13
2023-01-22T11:54:41.716Z,2.14
2023-01-22T11:57:19.152Z,2.14
2023-01-22T12:00:25.986Z,2.18
2023-01-22T12:03:21.635Z,2.16
2023-01-22T12:06:12.988Z,2.19
2023-01-22T12:08:54.700Z,2.18
2023-01-22T12:11:45.648Z,2.20
2023-01-22T12:14:38.973Z,2.19
2023-01-22T12:17:25.487Z,2.20
2023-01-22T12:20:24.630Z,2.21
2023-01-22T12:23:05.021Z,2.23
2023-01-22T12:25:41.281Z,2.23
2023-01-22T12:28:18.298Z,2.23
2023-01-22T12:30:56.567Z,2.21
2023-01-22T12:33:31.437Z,2.14
2023-01-22T12:36:05.474Z,2.15
2023-01-22T12:38:45.128Z,2.09
2023-01-22T12:41:47.500Z,2.11
2023-01-22T12:44:43.901Z,2.13
2023-01-22T12:47:19.892Z,2.15
2023-01-22T12:49:52.395Z,2.14
2023-01-22T12:52:39.058Z,2.16
2023-01-22T12:55:31.823Z,2.18
2023-01-22T12:58:02.168Z,2.18
2023-01-22T13:00:39.029Z,2.24
2023-01-22T13:03:33.230Z,2.27
2023-01-22T13:06:05.849Z,2.24
2023-01-22T13:08:43.828Z,2.24
2023-01-22T13:11:30.244Z,2.21
2023-01-22T13:14:15.276Z,2.22
2023-01-22T13:16:54.258Z,2.21
2023-01-22T13:19:26.061Z,2.22
2023-01-22T13:22:00.581Z,2.21
2023-01-22T13:24:30.933Z,2.17
2023-01-22T13:27:06.373Z,2.20
2023-01-22T13:29:39.671Z,2.20
2023-01-22T13:32:22.957Z,2.18
2023-01-22T13:34:52.929Z,2.20
2023-01-22T13:37:27.404Z,2.20
2023-01-22T13:39:57.655Z,2.18
2023-01-22T13:42:30.704Z,2.27
2023-01-22T13:45:01.759Z,2.21
2023-01-22T13:47:36.640Z,2.20
2023-01-22T13:50:07.188Z,2.22
2023-01-22T13:52:37.556Z,2.21
2023-01-22T13:55:19.066Z,2.17
2023-01-22T13:57:54.475Z,2.18
2023-01-22T14:00:30.085Z,2.19
2023-01-22T14:03:01.550Z,2.22
2023-01-22T14:05:34.798Z,2.24
2023-01-22T14:08:09.802Z,2.24
2023-01-22T14:10:41.334Z,2.23
2023-01-22T14:13:15.970Z,2.21
2023-01-22T14:15:58.889Z,2.20
2023-01-22T14:18:31.164Z,2.23
2023-01-22T14:21:01.239Z,2.21
2023-01-22T14:23:31.986Z,2.20
2023-01-22T14:26:05.654Z,2.22
2023-01-22T14:28:39.765Z,2.19
2023-01-22T14:31:09.693Z,2.12
2023-01-22T14:33:42.555Z,2.16
2023-01-22T14:36:12.989Z,2.14
2023-01-22T14:38:44.220Z,2.18
2023-01-22T14:41:14.703Z,2.18
2023-01-22T14:43:48.034Z,2.23
2023-01-22T14:46:18.472Z,2.21
2023-01-22T14:48:49.630Z,2.22
2023-01-22T14:51:19.816Z,2.26
2023-01-22T14:53:50.641Z,2.25
2023-01-22T14:56:20.983Z,2.26
2023-01-22T14:58:54.799Z,2.25
2023-01-22T15:01:25.635Z,2.21
2023-01-22T15:03:56.332Z,2.19
2023-01-22T15:06:27.450Z,2.18
2023-01-22T15:08:58.376Z,2.18
2023-01-22T15:11:28.696Z,2.20
2023-01-22T15:14:02.642Z,2.21
2023-01-22T15:16:34.202Z,2.22
2023-01-22T15:19:04.683Z,2.20
2023-01-22T15:21:34.673Z,2.24
2023-01-22T15:24:05.145Z,2.15
2023-01-22T15:26:36.724Z,2.09
2023-01-22T15:29:12.956Z,2.10
2023-01-22T15:31:43.506Z,2.08
2023-01-22T15:34:13.902Z,2.06
2023-01-22T15:36:44.837Z,2.06
2023-01-22T15:39:15.087Z,2.07
2023-01-22T15:41:46.308Z,2.08
2023-01-22T15:44:19.194Z,2.12
2023-01-22T15:46:49.147Z,2.12
2023-01-22T15:49:20.304Z,2.15
2023-01-22T15:51:50.243Z,2.16
2023-01-22T15:54:20.537Z,2.15
2023-01-22T15:56:50.491Z,2.14
2023-01-22T15:59:23.398Z,2.14
2023-01-22T16:01:53.662Z,2.11
2023-01-22T16:04:23.985Z,2.08
2023-01-22T16:06:54.054Z,2.10
2023-01-22T16:09:24.437Z,2.10
2023-01-22T16:11:54.784Z,2.10
2023-01-22T16:14:28.348Z,2.04
2023-01-22T16:16:58.359Z,2.08
2023-01-22T16:19:28.985Z,2.09
2023-01-22T16:21:58.964Z,2.07
2023-01-22T16:24:35.586Z,2.06
2023-01-22T16:27:05.852Z,2.06
2023-01-22T16:29:40.072Z,2.03
2023-01-22T16:32:10.248Z,2.01
2023-01-22T16:34:40.617Z,2.01
2023-01-22T16:37:10.597Z,1.99
2023-01-22T16:39:40.874Z,2.01
2023-01-22T16:42:11.277Z,1.98
2023-01-22T16:44:44.163Z,1.97
2023-01-22T16:47:14.068Z,1.98
2023-01-22T16:49:44.344Z,1.97
2023-01-22T16:52:22.474Z,1.96
2023-01-22T16:54:54.192Z,1.99
2023-01-22T16:57:24.143Z,1.99
2023-01-22T16:59:56.978Z,1.91
2023-01-22T17:02:26.886Z,1.92
2023-01-22T17:04:58.047Z,1.96
2023-01-22T17:07:33.879Z,1.99
2023-01-22T17:10:05.118Z,1.97
2023-01-22T17:12:35.637Z,1.98
2023-01-22T17:15:10.483Z,2.03
2023-01-22T17:17:41.090Z,2.01
2023-01-22T17:20:13.533Z,2.00
2023-01-22T17:22:43.972Z,2.01
2023-01-22T17:25:15.435Z,2.00
2023-01-22T17:27:45.611Z,2.00
2023-01-22T17:30:19.725Z,1.99
2023-01-22T17:32:50.360Z,2.03
2023-01-22T17:35:22.034Z,2.03
2023-01-22T17:37:52.416Z,2.00
2023-01-22T17:40:23.029Z,2.00
2023-01-22T17:42:53.308Z,1.99
2023-01-22T17:45:26.818Z,1.97
2023-01-22T17:47:57.146Z,1.97
2023-01-22T17:50:27.761Z,2.00
2023-01-22T17:52:58.486Z,2.01
2023-01-22T17:55:31.274Z,2.02
2023-01-22T17:58:01.587Z,2.04
2023-01-22T18:00:34.787Z,2.05
2023-01-22T18:03:05.113Z,2.01
2023-01-22T18:05:36.155Z,2.03
2023-01-22T18:08:06.851Z,1.98
2023-01-22T18:10:40.227Z,1.94
2023-01-22T18:13:10.462Z,1.97
2023-01-22T18:15:47.785Z,1.96
2023-01-22T18:18:18.787Z,1.94
2023-01-22T18:20:49.747Z,1.95
2023-01-22T18:23:19.982Z,1.92
2023-01-22T18:25:56.225Z,1.89
2023-01-22T18:28:28.430Z,1.91
2023-01-22T18:31:08.192Z,1.93
2023-01-22T18:33:39.675Z,1.93
2023-01-22T18:36:14.319Z,1.89
2023-01-22T18:38:45.342Z,1.90
2023-01-22T18:41:18.863Z,1.89
2023-01-22T18:43:53.352Z,1.91
2023-01-22T18:46:28.404Z,1.91
2023-01-22T18:49:00.529Z,1.91
2023-01-22T18:51:32.271Z,1.89
2023-01-22T18:54:04.882Z,1.90
2023-01-22T18:56:35.840Z,1.90
2023-01-22T18:59:06.510Z,1.91
2023-01-22T19:01:42.786Z,1.89
2023-01-22T19:04:18.019Z,1.91
2023-01-22T19:06:52.252Z,1.92
2023-01-22T19:09:23.449Z,1.92
2023-01-22T19:11:55.538Z,1.82
2023-01-22T19:14:25.851Z,1.81
2023-01-22T19:16:59.045Z,1.85
2023-01-22T19:19:29.292Z,1.77
2023-01-22T19:21:59.907Z,1.77
2023-01-22T19:24:32.226Z,1.79
2023-01-22T19:27:04.019Z,1.83
2023-01-22T19:29:34.528Z,1.84
2023-01-22T19:32:11.524Z,1.89
2023-01-22T19:34:41.859Z,1.89
2023-01-22T19:37:12.903Z,1.89
2023-01-22T19:39:43.404Z,1.90
2023-01-22T19:42:15.397Z,1.90
2023-01-22T19:44:45.813Z,1.91
2023-01-22T19:47:19.581Z,1.90
2023-01-22T19:49:50.081Z,1.89
2023-01-22T19:52:21.085Z,1.85
2023-01-22T19:54:51.311Z,1.89
2023-01-22T19:57:21.945Z,1.91
2023-01-22T19:59:55.034Z,1.91
2023-01-22T20:02:28.624Z,1.92
2023-01-22T20:04:59.039Z,1.95
2023-01-22T20:07:29.585Z,2.01
2023-01-22T20:10:00.050Z,2.00
2023-01-22T20:12:30.776Z,1.99
2023-01-22T20:15:01.068Z,1.96
2023-01-22T20:17:36.616Z,1.96
2023-01-22T20:20:07.473Z,1.95
2023-01-22T20:22:38.046Z,1.89
2023-01-22T20:25:10.748Z,1.78
2023-01-22T20:27:41.041Z,1.78
2023-01-22T20:30:12.387Z,1.78
2023-01-22T20:32:45.426Z,1.82
2023-01-22T20:35:16.288Z,1.86
2023-01-22T20:37:46.758Z,1.88
2023-01-22T20:40:17.043Z,1.87
2023-01-22T20:42:47.557Z,1.83
2023-01-22T20:45:17.830Z,1.83
2023-01-22T20:47:51.156Z,1.82
2023-01-22T20:50:21.735Z,1.79
2023-01-22T20:52:52.248Z,1.79
2023-01-22T20:55:22.539Z,1.80
2023-01-22T20:57:53.292Z,1.81
2023-01-22T21:00:24.027Z,1.78
2023-01-22T21:02:57.022Z,1.77
2023-01-22T21:05:27.252Z,1.77
2023-01-22T21:07:57.543Z,1.78
2023-01-22T21:10:27.526Z,1.80
2023-01-22T21:12:58.119Z,1.81
2023-01-22T21:15:28.284Z,1.81
2023-01-22T21:18:01.209Z,1.86
2023-01-22T21:20:31.223Z,1.87
2023-01-22T21:23:01.569Z,1.89
2023-01-22T21:25:31.550Z,1.90
2023-01-22T21:28:03.704Z,1.88
2023-01-22T21:30:34.364Z,1.87
2023-01-22T21:33:07.434Z,1.89
2023-01-22T21:35:37.677Z,1.87
2023-01-22T21:38:07.885Z,1.86
2023-01-22T21:40:37.833Z,1.86
2023-01-22T21:43:20.555Z,1.86
2023-01-22T21:46:03.009Z,1.85
2023-01-22T21:48:37.013Z,1.80
2023-01-22T21:51:07.565Z,1.80
2023-01-22T21:53:37.874Z,1.83
2023-01-22T21:56:09.103Z,1.84
2023-01-22T21:58:45.112Z,1.80
2023-01-22T22:01:18.032Z,1.82
2023-01-22T22:03:51.864Z,1.85
2023-01-22T22:06:22.054Z,1.80
2023-01-22T22:08:52.518Z,1.79
2023-01-22T22:11:22.829Z,1.78
2023-01-22T22:13:53.385Z,1.80
2023-01-22T22:16:23.988Z,1.81
2023-01-22T22:18:58.155Z,1.81
2023-01-22T22:21:28.169Z,1.80
2023-01-22T22:23:59.684Z,1.82
2023-01-22T22:26:30.221Z,1.84
2023-01-22T22:29:00.987Z,1.86
2023-01-22T22:31:31.365Z,1.90
2023-01-22T22:34:04.575Z,1.87
2023-01-22T22:36:35.591Z,1.82
2023-01-22T22:39:07.724Z,1.80
2023-01-22T22:41:39.536Z,1.84
2023-01-22T22:44:11.640Z,1.86
2023-01-22T22:46:42.435Z,1.89
2023-01-22T22:49:16.883Z,1.89
2023-01-22T22:51:48.875Z,1.89
2023-01-22T22:54:21.889Z,1.89
2023-01-22T22:56:52.876Z,1.86
2023-01-22T22:59:23.635Z,1.88
2023-01-22T23:01:56.515Z,1.88
2023-01-22T23:04:29.716Z,1.87
2023-01-22T23:06:59.763Z,1.85
2023-01-22T23:09:30.985Z,1.87
2023-01-22T23:12:01.735Z,1.87
2023-01-22T23:14:32.337Z,1.90
2023-01-22T23:17:04.678Z,1.91
2023-01-22T23:19:37.608Z,1.85
2023-01-22T23:22:07.817Z,1.86
2023-01-22T23:24:38.227Z,1.86
2023-01-22T23:27:09.250Z,1.86
2023-01-22T23:29:40.922Z,1.86
2023-01-22T23:32:10.960Z,1.89
2023-01-22T23:34:43.765Z,1.89
2023-01-22T23:37:14.297Z,1.92
2023-01-22T23:39:45.316Z,1.89
2023-01-22T23:42:15.262Z,1.89
2023-01-22T23:44:45.611Z,1.90
2023-01-22T23:47:15.540Z,1.91
2023-01-22T23:49:48.444Z,1.90
2023-01-22T23:52:18.499Z,1.87
2023-01-22T23:54:48.910Z,1.90
2023-01-22T23:57:18.938Z,1.92
2023-01-22T23:59:52.317Z,1.91
